Terminal Aerodrome Forecast
Issued by NWS

Home | Current Version | Previous Version | Text Only | Print | Product List | Glossary On
Versions: 1 2 3 4 5 6 7 8 9 10 11 12 13 14 15 16 17 18 19 20 21
000
FTUS43 KPAH 180200 AAA
TAFCGI
TAF AMD
KCGI 180223Z 1802/1824 VRB03KT P6SM SCT030
     FM180800 VRB02KT 4SM BR BKN015
      TEMPO 1808/1812 2SM BR BKN010
     FM181400 07005KT P6SM BKN025
     FM181800 06006KT P6SM BKN035=

USA.gov is the U.S. government's official web portal to all federal, state and local government web resources and services.